createdAt,value
2022-11-30T00:01:15.066Z,99794.50
2022-11-30T00:03:41.272Z,99788.34
2022-11-30T00:06:07.963Z,99780.16
2022-11-30T00:08:34.258Z,99769.28
2022-11-30T00:11:00.537Z,99770.28
2022-11-30T00:13:26.743Z,99755.38
2022-11-30T00:15:52.957Z,99766.13
2022-11-30T00:18:19.164Z,99765.13
2022-11-30T00:20:45.382Z,99759.53
2022-11-30T00:23:11.584Z,99759.69
2022-11-30T00:25:37.794Z,99770.44
2022-11-30T00:28:04.032Z,99771.22
2022-11-30T00:30:30.292Z,99769.44
2022-11-30T00:32:59.582Z,99765.84
2022-11-30T00:35:26.019Z,99761.69
2022-11-30T00:37:52.291Z,99767.06
2022-11-30T00:40:18.500Z,99752.16
2022-11-30T00:42:44.709Z,99766.66
2022-11-30T00:45:10.922Z,99769.28
2022-11-30T00:47:37.190Z,99765.91
2022-11-30T00:50:04.425Z,99763.34
2022-11-30T00:52:30.642Z,99767.34
2022-11-30T00:54:56.841Z,99772.81
2022-11-30T00:57:23.076Z,99778.59
2022-11-30T00:59:49.276Z,99779.97
2022-11-30T01:02:15.571Z,99776.00
2022-11-30T01:04:41.847Z,99771.66
2022-11-30T01:07:08.047Z,99768.34
2022-11-30T01:09:34.249Z,99761.97
2022-11-30T01:12:00.462Z,99754.22
2022-11-30T01:14:26.670Z,99754.06
2022-11-30T01:16:56.213Z,99743.34
2022-11-30T01:19:22.719Z,99749.88
2022-11-30T01:21:48.924Z,99752.88
2022-11-30T01:24:15.139Z,99752.06
2022-11-30T01:26:41.480Z,99758.81
2022-11-30T01:29:07.679Z,99748.91
2022-11-30T01:31:33.890Z,99739.19
2022-11-30T01:34:00.100Z,99740.41
2022-11-30T01:36:26.333Z,99743.91
2022-11-30T01:38:53.648Z,99753.44
2022-11-30T01:41:24.238Z,99757.22
2022-11-30T01:43:51.623Z,99747.28
2022-11-30T01:46:17.823Z,99745.34
2022-11-30T01:48:44.277Z,99752.22
2022-11-30T01:51:10.514Z,99752.50
2022-11-30T01:53:36.732Z,99758.03
2022-11-30T01:56:02.947Z,99758.22
2022-11-30T01:58:29.272Z,99751.66
2022-11-30T02:00:55.561Z,99748.13
2022-11-30T02:03:24.811Z,99750.72
2022-11-30T02:05:51.018Z,99744.19
2022-11-30T02:08:17.385Z,99742.19
2022-11-30T02:10:44.149Z,99744.97
2022-11-30T02:13:13.420Z,99741.19
2022-11-30T02:15:54.864Z,99753.50
2022-11-30T02:18:26.742Z,99734.66
2022-11-30T02:20:55.528Z,99726.28
2022-11-30T02:23:21.689Z,99720.13
2022-11-30T02:26:06.574Z,99725.28
2022-11-30T02:28:38.704Z,99718.19
2022-11-30T02:31:06.001Z,99714.25
2022-11-30T02:33:32.264Z,99704.47
2022-11-30T02:35:58.487Z,99706.09
2022-11-30T02:38:25.151Z,99694.56
2022-11-30T02:40:51.343Z,99696.00
2022-11-30T02:43:17.769Z,99696.78
2022-11-30T02:45:47.022Z,99701.09
2022-11-30T02:48:13.878Z,99696.78
2022-11-30T02:50:44.713Z,99697.22
2022-11-30T02:53:10.998Z,99697.00
2022-11-30T02:55:37.530Z,99698.72
2022-11-30T02:58:03.764Z,99699.94
2022-11-30T03:00:29.968Z,99703.50
2022-11-30T03:02:56.226Z,99697.00
2022-11-30T03:05:22.472Z,99682.75
2022-11-30T03:07:48.745Z,99678.75
2022-11-30T03:10:15.024Z,99682.16
2022-11-30T03:12:41.233Z,99672.63
2022-11-30T03:15:07.481Z,99671.63
2022-11-30T03:17:33.761Z,99673.44
2022-11-30T03:19:59.988Z,99663.06
2022-11-30T03:22:26.205Z,99652.16
2022-11-30T03:24:52.437Z,99653.75
2022-11-30T03:27:18.761Z,99655.09
2022-11-30T03:29:45.051Z,99661.13
2022-11-30T03:32:11.257Z,99670.25
2022-11-30T03:34:37.461Z,99667.28
2022-11-30T03:37:03.668Z,99666.09
2022-11-30T03:39:29.893Z,99664.31
2022-11-30T03:41:56.096Z,99661.94
2022-11-30T03:44:22.296Z,99668.09
2022-11-30T03:46:48.530Z,99658.56
2022-11-30T03:49:14.809Z,99655.22
2022-11-30T03:51:40.999Z,99654.22
2022-11-30T03:54:07.197Z,99650.69
2022-11-30T03:56:33.403Z,99639.59
2022-11-30T03:58:59.631Z,99630.06
2022-11-30T04:01:25.880Z,99615.19
2022-11-30T04:03:52.151Z,99609.81
2022-11-30T04:06:18.408Z,99600.50
2022-11-30T04:08:44.618Z,99587.81
2022-11-30T04:11:10.912Z,99572.38
2022-11-30T04:13:37.492Z,99558.63
2022-11-30T04:16:04.002Z,99555.75
2022-11-30T04:18:30.764Z,99543.09
2022-11-30T04:20:57.353Z,99531.69
2022-11-30T04:23:23.770Z,99529.78
2022-11-30T04:25:50.083Z,99529.19
2022-11-30T04:28:16.503Z,99510.00
2022-11-30T04:30:42.700Z,99493.53
2022-11-30T04:33:15.276Z,99492.53
2022-11-30T04:35:50.538Z,99479.66
2022-11-30T04:38:16.792Z,99490.63
2022-11-30T04:40:43.085Z,99488.84
2022-11-30T04:43:09.481Z,99474.72
2022-11-30T04:45:35.928Z,99472.16
2022-11-30T04:48:02.413Z,99471.22
2022-11-30T04:50:28.679Z,99457.91
2022-11-30T04:52:54.922Z,99434.41
2022-11-30T04:55:28.971Z,99438.66
2022-11-30T04:57:55.191Z,99438.00
2022-11-30T05:00:21.814Z,99444.03
2022-11-30T05:02:52.875Z,99439.22
2022-11-30T05:05:19.272Z,99436.41
2022-11-30T05:07:47.603Z,99436.63
2022-11-30T05:10:27.060Z,99440.66
2022-11-30T05:12:59.066Z,99439.88
2022-11-30T05:15:25.466Z,99445.69
2022-11-30T05:17:51.707Z,99447.91
2022-11-30T05:20:18.081Z,99435.41
2022-11-30T05:22:48.389Z,99438.00
2022-11-30T05:25:22.801Z,99443.00
2022-11-30T05:27:56.190Z,99421.97
2022-11-30T05:30:28.346Z,99425.31
2022-11-30T05:33:02.105Z,99421.75
2022-11-30T05:35:28.416Z,99423.97
2022-11-30T05:40:34.944Z,99423.19
2022-11-30T05:43:02.673Z,99418.59
2022-11-30T05:45:32.313Z,99410.88
2022-11-30T05:48:02.908Z,99412.09
2022-11-30T05:51:00.841Z,99409.16
2022-11-30T05:53:27.121Z,99397.88
2022-11-30T05:55:53.505Z,99396.72
2022-11-30T05:58:29.561Z,99399.44
2022-11-30T06:00:55.831Z,99386.69
2022-11-30T06:03:36.857Z,99382.53
2022-11-30T06:06:04.905Z,99385.19
2022-11-30T06:11:35.486Z,99384.19
2022-11-30T06:14:14.936Z,99380.47
2022-11-30T06:16:41.399Z,99378.47
2022-11-30T06:19:10.369Z,99369.75
2022-11-30T06:21:36.660Z,99363.81
2022-11-30T06:24:02.949Z,99365.03
2022-11-30T06:27:11.456Z,99355.72
2022-11-30T06:29:40.980Z,99337.47
2022-11-30T06:32:07.471Z,99346.78
2022-11-30T06:34:38.135Z,99345.78
2022-11-30T06:40:09.487Z,99325.78
2022-11-30T06:42:35.767Z,99329.16
2022-11-30T06:45:02.013Z,99316.66
2022-11-30T06:48:01.866Z,99315.88
2022-11-30T06:50:28.158Z,99317.09
2022-11-30T06:53:03.064Z,99306.34
2022-11-30T06:55:37.352Z,99276.22
2022-11-30T06:58:04.662Z,99273.88
2022-11-30T07:00:31.302Z,99270.63
2022-11-30T07:03:06.244Z,99264.34
2022-11-30T07:08:36.968Z,99258.75
2022-11-30T07:11:03.467Z,99255.84
2022-11-30T07:13:29.796Z,99257.03
2022-11-30T07:15:56.126Z,99256.75
2022-11-30T07:18:38.576Z,99257.75
2022-11-30T07:21:05.022Z,99262.34
2022-11-30T07:23:31.435Z,99264.47
2022-11-30T07:26:05.637Z,99262.69
2022-11-30T07:28:32.329Z,99266.16
2022-11-30T07:31:07.290Z,99245.88
2022-11-30T07:33:37.992Z,99254.06
2022-11-30T07:36:04.241Z,99244.53
2022-11-30T07:38:34.366Z,99245.09
2022-11-30T07:41:37.198Z,99246.88
2022-11-30T07:44:10.789Z,99232.56
2022-11-30T07:46:38.917Z,99233.00
2022-11-30T07:49:05.557Z,99222.81
2022-11-30T07:51:31.848Z,99233.56
2022-11-30T07:53:58.120Z,99225.06
2022-11-30T07:56:24.525Z,99218.44
2022-11-30T07:58:51.501Z,99222.47
2022-11-30T08:01:19.499Z,99216.88
2022-11-30T08:03:51.408Z,99211.94
2022-11-30T08:09:30.938Z,99202.34
2022-11-30T08:12:34.507Z,99202.00
2022-11-30T08:23:51.833Z,99184.31
2022-11-30T08:26:18.102Z,99177.22
2022-11-30T08:31:49.689Z,99167.19
2022-11-30T08:37:33.754Z,99177.50
2022-11-30T08:46:11.358Z,99184.56
2022-11-30T08:57:30.864Z,99182.66
2022-11-30T09:03:08.654Z,99188.34
2022-11-30T09:05:53.929Z,99175.94
2022-11-30T09:11:45.506Z,99179.53
2022-11-30T09:14:13.777Z,99175.03
